Historique des mesures à Cassis (13260), France
Quotidien Résumé Juin 4, 2017 Unités:  Métrique    US   Métrique/US
« Précédent (Jour)
Suivant (Jour) »
Quotidien Hebdomadaire Mensuel Annuel Période au choix
  Maximum: Minimum: Moyenne:
Température: TemperatureC °C 19.1 °C 21.5 °C
Point de rosée: DewpointC °C 12.7 °C 13.8 °C
Humidité: Humidity % 47 % 59 %
Vitesse du vent: 0 km/h 0 km/h 15.3 km/h
Rafales: 0 km/h - -
Vent:- - SW
Pression: PressurehPa hPa 1007.7 hPa -
Précipitations: 0.0 mm    
Historical Graphs
 
 
Mesures pour : Juin 4, 2017
Heure Temperature Point de rosée Pression Vent Vitesse du vent Rafales Humidité Pluie (par heure) Conditions
TemperatureC °C DewpointC °C PressurehPa hPa Calm     Humidity % HourlyPrecipMM mm SoftwareType W/m2
00:10 20.6 °C 15.6 °C 1012.1 hPa WNW 34.1 km/h 34.1 km/h 73 % 0.0 mm open2300-1.11 W/m2
01:10 19.9 °C 14.7 °C 1012.1 hPa North 3.4 km/h 10.3 km/h 72 % 0.0 mm open2300-1.11 W/m2
02:10 19.6 °C 14.8 °C 1012.1 hPa Calm     74 % 0.0 mm open2300-1.11 W/m2
03:10 19.5 °C 14.9 °C 1011.7 hPa North 8 km/h 12.7 km/h 75 % 0.0 mm open2300-1.11 W/m2
04:10 19.2 °C 14.9 °C 1011.1 hPa NNE 12.7 km/h 12.7 km/h 76 % 0.0 mm open2300-1.11 W/m2
05:10 19.1 °C 14.6 °C 1011.1 hPa NE 5.1 km/h 8.9 km/h 75 % 0.0 mm open2300-1.11 W/m2
06:10 19.1 °C 14.1 °C 1011.1 hPa NW 9.8 km/h 9.8 km/h 73 % 0.0 mm open2300-1.11 W/m2
07:10 19.2 °C 13.8 °C 1011.4 hPa North 4.7 km/h 26.2 km/h 71 % 0.0 mm open2300-1.11 W/m2
08:10 19.9 °C 14.3 °C 1011.1 hPa WNW 21.6 km/h 55.7 km/h 70 % 0.0 mm open2300-1.11 W/m2
09:10 19.9 °C 14.1 °C 1010.7 hPa NNW 22.5 km/h 41.7 km/h 69 % 0.0 mm open2300-1.11 W/m2
10:10 22.1 °C 14.4 °C 1010.7 hPa WNW 30.7 km/h 39.4 km/h 62 % 0.0 mm open2300-1.11 W/m2
11:10 24.1 °C 14.5 °C 1010.0 hPa West 22 km/h 48.1 km/h 55 % 0.0 mm open2300-1.11 W/m2
12:10 25.6 °C 14.7 °C 1010.0 hPa WNW 30.1 km/h 48.1 km/h 51 % 0.0 mm open2300-1.11 W/m2
13:10 25.4 °C 14.3 °C 1009.7 hPa NW 16.3 km/h 32.3 km/h 50 % 0.0 mm open2300-1.11 W/m2
14:10 26.4 °C 14.2 °C 1008.7 hPa NW 9.8 km/h 25.4 km/h 47 % 0.0 mm open2300-1.11 W/m2
15:10 26.4 °C 15.2 °C 1008.7 hPa NNW 29.5 km/h 29.5 km/h 50 % 0.0 mm open2300-1.11 W/m2
16:10 26.3 °C 15.1 °C 1008.7 hPa NNE 9.8 km/h 51 km/h 50 % 0.0 mm open2300-1.11 W/m2
17:11 25.6 °C 14.1 °C 1008.0 hPa NW 34.8 km/h 34.8 km/h 49 % 0.0 mm open2300-1.11 W/m2
18:10 26.1 °C 13.9 °C 1007.7 hPa WNW 19.2 km/h 53.3 km/h 47 % 0.0 mm open2300-1.11 W/m2
19:11 24.3 °C 14.9 °C 1007.7 hPa NW 33.2 km/h 33.2 km/h 56 % 0.0 mm open2300-1.11 W/m2
20:10 23.6 °C 14.6 °C 1007.7 hPa WNW 9.3 km/h 16.3 km/h 57 % 0.0 mm open2300-1.11 W/m2
21:10 23.0 °C 12.8 °C 1008.4 hPa North 2.3 km/h 15 km/h 53 % 0.0 mm open2300-1.11 W/m2
22:10 22.1 °C 12.9 °C 1009.0 hPa NNW 2.3 km/h 2.3 km/h 56 % 0.0 mm open2300-1.11 W/m2
23:10 21.3 °C 12.7 °C 1009.7 hPa NW 12.7 km/h 16.3 km/h 58 % 0.0 mm open2300-1.11 W/m2
Observations météo à CASSIS
WU-History script by Weather Underground - 1 mb